Terminal Aerodrome Forecast
Issued by NWS

Home | Current Version | Previous Version | Text Only | Print | Product List | Glossary On
Versions: 1 2 3 4 5 6 7 8 9 10 11 12 13 14 15
000
FTAK31 PAFA 220538
TAFATA
TAF
PATA 220538Z 2206/2306 06006KT 3SM -SN BR SCT015 BKN025 OVC035
     FM220900 09008KT 1 1/2SM -SN BR BKN015 OVC025
     FM221200 12008KT 2SM -SHSN BKN015 BKN025 OVC035
     FM221800 15006KT 4SM -SHSN BR BKN025 OVC035
     FM222100 18008KT P6SM VCSH SCT035 BKN050 BKN100=

USA.gov is the U.S. government's official web portal to all federal, state and local government web resources and services.